sensor_id;sensor_type;location;lat;lon;timestamp;P1;durP1;ratioP1;P2;durP2;ratioP2
813;SDS011;389;48.710;9.392;2023-01-29T00:01:13;11.40;;;6.83;;
813;SDS011;389;48.710;9.392;2023-01-29T00:03:38;12.87;;;6.97;;
813;SDS011;389;48.710;9.392;2023-01-29T00:06:05;12.80;;;7.43;;
813;SDS011;389;48.710;9.392;2023-01-29T00:08:36;11.23;;;6.40;;
813;SDS011;389;48.710;9.392;2023-01-29T00:11:03;12.20;;;5.40;;
813;SDS011;389;48.710;9.392;2023-01-29T00:13:30;9.80;;;6.30;;
813;SDS011;389;48.710;9.392;2023-01-29T00:15:56;11.53;;;6.70;;
813;SDS011;389;48.710;9.392;2023-01-29T00:18:23;12.37;;;7.03;;
813;SDS011;389;48.710;9.392;2023-01-29T00:20:49;10.80;;;6.70;;
813;SDS011;389;48.710;9.392;2023-01-29T00:23:15;15.20;;;7.17;;
813;SDS011;389;48.710;9.392;2023-01-29T00:25:41;12.80;;;7.33;;
813;SDS011;389;48.710;9.392;2023-01-29T00:28:07;14.20;;;7.17;;
813;SDS011;389;48.710;9.392;2023-01-29T00:30:34;9.47;;;5.73;;
813;SDS011;389;48.710;9.392;2023-01-29T00:33:00;14.10;;;6.93;;
813;SDS011;389;48.710;9.392;2023-01-29T00:35:26;11.90;;;6.80;;
813;SDS011;389;48.710;9.392;2023-01-29T00:37:53;11.50;;;6.13;;
813;SDS011;389;48.710;9.392;2023-01-29T00:40:19;9.90;;;6.03;;
813;SDS011;389;48.710;9.392;2023-01-29T00:42:45;12.03;;;6.00;;
813;SDS011;389;48.710;9.392;2023-01-29T00:45:29;9.17;;;5.20;;
813;SDS011;389;48.710;9.392;2023-01-29T00:47:54;9.30;;;5.83;;
813;SDS011;389;48.710;9.392;2023-01-29T00:50:20;12.77;;;6.57;;
813;SDS011;389;48.710;9.392;2023-01-29T00:52:46;16.33;;;6.60;;
813;SDS011;389;48.710;9.392;2023-01-29T00:55:13;10.43;;;5.90;;
813;SDS011;389;48.710;9.392;2023-01-29T00:57:39;12.33;;;6.27;;
813;SDS011;389;48.710;9.392;2023-01-29T01:00:06;11.43;;;5.63;;
813;SDS011;389;48.710;9.392;2023-01-29T01:02:36;10.60;;;6.40;;
813;SDS011;389;48.710;9.392;2023-01-29T01:05:21;12.47;;;6.70;;
813;SDS011;389;48.710;9.392;2023-01-29T01:07:48;14.73;;;7.93;;
813;SDS011;389;48.710;9.392;2023-01-29T01:10:24;11.40;;;6.00;;
813;SDS011;389;48.710;9.392;2023-01-29T01:12:55;10.07;;;6.30;;
813;SDS011;389;48.710;9.392;2023-01-29T01:15:23;10.53;;;6.30;;
813;SDS011;389;48.710;9.392;2023-01-29T01:17:53;14.93;;;6.70;;
813;SDS011;389;48.710;9.392;2023-01-29T01:20:20;13.73;;;6.80;;
813;SDS011;389;48.710;9.392;2023-01-29T01:22:46;10.87;;;6.50;;
813;SDS011;389;48.710;9.392;2023-01-29T01:25:12;13.70;;;6.93;;
813;SDS011;389;48.710;9.392;2023-01-29T01:27:38;13.87;;;7.60;;
813;SDS011;389;48.710;9.392;2023-01-29T01:30:06;10.40;;;5.80;;
813;SDS011;389;48.710;9.392;2023-01-29T01:32:38;14.10;;;6.40;;
813;SDS011;389;48.710;9.392;2023-01-29T01:35:04;11.63;;;6.70;;
813;SDS011;389;48.710;9.392;2023-01-29T01:37:30;8.80;;;5.80;;
813;SDS011;389;48.710;9.392;2023-01-29T01:39:56;11.00;;;5.50;;
813;SDS011;389;48.710;9.392;2023-01-29T01:42:26;12.33;;;5.67;;
813;SDS011;389;48.710;9.392;2023-01-29T01:44:55;10.30;;;6.00;;
813;SDS011;389;48.710;9.392;2023-01-29T01:47:29;10.20;;;6.10;;
813;SDS011;389;48.710;9.392;2023-01-29T01:50:03;9.37;;;6.07;;
813;SDS011;389;48.710;9.392;2023-01-29T01:52:36;10.23;;;6.13;;
813;SDS011;389;48.710;9.392;2023-01-29T01:55:05;9.90;;;6.23;;
813;SDS011;389;48.710;9.392;2023-01-29T01:57:33;11.77;;;5.40;;
813;SDS011;389;48.710;9.392;2023-01-29T02:00:09;11.40;;;5.77;;
813;SDS011;389;48.710;9.392;2023-01-29T02:02:42;9.73;;;5.50;;
813;SDS011;389;48.710;9.392;2023-01-29T02:05:29;12.87;;;6.47;;
813;SDS011;389;48.710;9.392;2023-01-29T02:08:16;9.97;;;5.97;;
813;SDS011;389;48.710;9.392;2023-01-29T02:11:07;11.80;;;6.27;;
813;SDS011;389;48.710;9.392;2023-01-29T02:13:33;7.37;;;5.10;;
813;SDS011;389;48.710;9.392;2023-01-29T02:15:58;8.80;;;5.47;;
813;SDS011;389;48.710;9.392;2023-01-29T02:18:24;11.93;;;5.40;;
813;SDS011;389;48.710;9.392;2023-01-29T02:21:02;8.97;;;5.10;;
813;SDS011;389;48.710;9.392;2023-01-29T02:23:59;10.70;;;5.30;;
813;SDS011;389;48.710;9.392;2023-01-29T02:37:53;9.60;;;4.67;;
813;SDS011;389;48.710;9.392;2023-01-29T02:43:00;8.10;;;3.90;;
813;SDS011;389;48.710;9.392;2023-01-29T02:45:32;7.50;;;5.53;;
813;SDS011;389;48.710;9.392;2023-01-29T02:48:06;7.70;;;4.27;;
813;SDS011;389;48.710;9.392;2023-01-29T02:50:41;10.47;;;5.77;;
813;SDS011;389;48.710;9.392;2023-01-29T02:53:15;8.60;;;5.20;;
813;SDS011;389;48.710;9.392;2023-01-29T02:55:50;10.80;;;5.40;;
813;SDS011;389;48.710;9.392;2023-01-29T02:58:21;10.30;;;5.10;;
813;SDS011;389;48.710;9.392;2023-01-29T03:01:10;9.27;;;5.07;;
813;SDS011;389;48.710;9.392;2023-01-29T03:03:48;10.10;;;5.17;;
813;SDS011;389;48.710;9.392;2023-01-29T03:06:23;9.50;;;6.47;;
813;SDS011;389;48.710;9.392;2023-01-29T03:09:00;7.60;;;5.10;;
813;SDS011;389;48.710;9.392;2023-01-29T03:11:31;9.80;;;5.47;;
813;SDS011;389;48.710;9.392;2023-01-29T03:14:03;8.80;;;4.67;;
813;SDS011;389;48.710;9.392;2023-01-29T03:16:48;9.53;;;4.70;;
813;SDS011;389;48.710;9.392;2023-01-29T03:19:24;7.80;;;4.70;;
813;SDS011;389;48.710;9.392;2023-01-29T03:22:00;8.60;;;5.00;;
813;SDS011;389;48.710;9.392;2023-01-29T03:24:36;7.00;;;4.70;;
813;SDS011;389;48.710;9.392;2023-01-29T03:27:22;10.10;;;5.00;;
813;SDS011;389;48.710;9.392;2023-01-29T03:30:10;12.10;;;5.30;;
813;SDS011;389;48.710;9.392;2023-01-29T03:32:56;9.87;;;4.50;;
813;SDS011;389;48.710;9.392;2023-01-29T03:35:24;7.67;;;4.40;;
813;SDS011;389;48.710;9.392;2023-01-29T03:38:01;9.17;;;4.80;;
813;SDS011;389;48.710;9.392;2023-01-29T03:40:28;9.43;;;4.60;;
813;SDS011;389;48.710;9.392;2023-01-29T03:46:17;6.57;;;5.00;;
813;SDS011;389;48.710;9.392;2023-01-29T03:51:42;8.40;;;5.20;;
813;SDS011;389;48.710;9.392;2023-01-29T03:57:02;9.43;;;5.17;;
813;SDS011;389;48.710;9.392;2023-01-29T03:59:40;7.40;;;4.93;;
813;SDS011;389;48.710;9.392;2023-01-29T04:02:16;9.47;;;5.50;;
813;SDS011;389;48.710;9.392;2023-01-29T04:04:46;5.87;;;4.00;;
813;SDS011;389;48.710;9.392;2023-01-29T04:07:16;11.83;;;5.57;;
813;SDS011;389;48.710;9.392;2023-01-29T04:09:55;9.57;;;4.60;;
813;SDS011;389;48.710;9.392;2023-01-29T04:12:28;8.97;;;4.90;;
813;SDS011;389;48.710;9.392;2023-01-29T04:15:00;10.53;;;4.87;;
813;SDS011;389;48.710;9.392;2023-01-29T04:17:33;8.57;;;4.60;;
813;SDS011;389;48.710;9.392;2023-01-29T04:20:04;5.50;;;4.37;;
813;SDS011;389;48.710;9.392;2023-01-29T04:22:31;9.10;;;4.90;;
813;SDS011;389;48.710;9.392;2023-01-29T04:25:03;7.47;;;4.70;;
813;SDS011;389;48.710;9.392;2023-01-29T04:32:53;7.70;;;4.70;;
813;SDS011;389;48.710;9.392;2023-01-29T04:43:33;7.67;;;5.00;;
813;SDS011;389;48.710;9.392;2023-01-29T04:46:17;8.23;;;4.20;;
813;SDS011;389;48.710;9.392;2023-01-29T04:48:58;9.03;;;5.40;;
813;SDS011;389;48.710;9.392;2023-01-29T04:51:59;6.73;;;4.40;;
813;SDS011;389;48.710;9.392;2023-01-29T05:00:20;9.93;;;4.87;;
813;SDS011;389;48.710;9.392;2023-01-29T05:02:51;8.30;;;4.40;;
813;SDS011;389;48.710;9.392;2023-01-29T05:05:17;7.67;;;4.67;;
813;SDS011;389;48.710;9.392;2023-01-29T05:07:45;14.53;;;5.30;;
813;SDS011;389;48.710;9.392;2023-01-29T05:10:12;6.90;;;4.50;;
813;SDS011;389;48.710;9.392;2023-01-29T05:12:41;7.60;;;4.43;;
813;SDS011;389;48.710;9.392;2023-01-29T05:15:11;9.20;;;4.47;;
813;SDS011;389;48.710;9.392;2023-01-29T05:17:41;9.17;;;5.17;;
813;SDS011;389;48.710;9.392;2023-01-29T05:20:08;7.90;;;4.90;;
813;SDS011;389;48.710;9.392;2023-01-29T05:22:35;7.83;;;4.70;;
813;SDS011;389;48.710;9.392;2023-01-29T05:25:09;6.57;;;4.30;;
813;SDS011;389;48.710;9.392;2023-01-29T05:27:45;7.73;;;4.33;;
813;SDS011;389;48.710;9.392;2023-01-29T05:30:28;7.40;;;4.63;;
813;SDS011;389;48.710;9.392;2023-01-29T05:32:53;8.07;;;5.10;;
813;SDS011;389;48.710;9.392;2023-01-29T05:35:19;8.33;;;4.77;;
813;SDS011;389;48.710;9.392;2023-01-29T05:37:44;9.53;;;4.70;;
813;SDS011;389;48.710;9.392;2023-01-29T05:40:10;7.50;;;4.57;;
813;SDS011;389;48.710;9.392;2023-01-29T05:42:36;6.93;;;4.50;;
813;SDS011;389;48.710;9.392;2023-01-29T05:45:01;5.00;;;3.50;;
813;SDS011;389;48.710;9.392;2023-01-29T05:47:27;7.10;;;4.20;;
813;SDS011;389;48.710;9.392;2023-01-29T05:49:53;8.40;;;4.90;;
813;SDS011;389;48.710;9.392;2023-01-29T05:52:18;7.63;;;4.57;;
813;SDS011;389;48.710;9.392;2023-01-29T05:54:44;6.70;;;4.23;;
813;SDS011;389;48.710;9.392;2023-01-29T05:57:10;7.53;;;4.80;;
813;SDS011;389;48.710;9.392;2023-01-29T05:59:35;7.83;;;4.80;;
813;SDS011;389;48.710;9.392;2023-01-29T06:02:01;6.70;;;4.10;;
813;SDS011;389;48.710;9.392;2023-01-29T06:04:26;6.43;;;4.43;;
813;SDS011;389;48.710;9.392;2023-01-29T06:06:52;5.97;;;4.23;;
813;SDS011;389;48.710;9.392;2023-01-29T06:09:17;8.30;;;4.47;;
813;SDS011;389;48.710;9.392;2023-01-29T06:11:43;9.70;;;5.17;;
813;SDS011;389;48.710;9.392;2023-01-29T06:14:09;8.30;;;5.13;;
813;SDS011;389;48.710;9.392;2023-01-29T06:16:34;7.17;;;5.30;;
813;SDS011;389;48.710;9.392;2023-01-29T06:19:00;9.43;;;5.17;;
813;SDS011;389;48.710;9.392;2023-01-29T06:21:25;11.17;;;5.67;;
813;SDS011;389;48.710;9.392;2023-01-29T06:23:51;11.93;;;6.17;;
813;SDS011;389;48.710;9.392;2023-01-29T06:26:17;11.37;;;5.80;;
813;SDS011;389;48.710;9.392;2023-01-29T06:28:43;10.80;;;6.00;;
813;SDS011;389;48.710;9.392;2023-01-29T06:31:10;7.97;;;5.30;;
813;SDS011;389;48.710;9.392;2023-01-29T06:33:35;10.90;;;5.90;;
813;SDS011;389;48.710;9.392;2023-01-29T06:36:02;10.00;;;5.37;;
813;SDS011;389;48.710;9.392;2023-01-29T06:38:28;9.83;;;4.70;;
813;SDS011;389;48.710;9.392;2023-01-29T06:40:55;8.87;;;5.50;;
813;SDS011;389;48.710;9.392;2023-01-29T06:43:21;9.03;;;5.20;;
813;SDS011;389;48.710;9.392;2023-01-29T06:45:48;8.97;;;5.50;;
813;SDS011;389;48.710;9.392;2023-01-29T06:48:17;9.10;;;5.40;;
813;SDS011;389;48.710;9.392;2023-01-29T06:50:43;10.30;;;5.63;;
813;SDS011;389;48.710;9.392;2023-01-29T06:53:10;9.27;;;5.47;;
813;SDS011;389;48.710;9.392;2023-01-29T06:55:36;9.57;;;5.40;;
813;SDS011;389;48.710;9.392;2023-01-29T06:58:05;10.27;;;5.53;;
813;SDS011;389;48.710;9.392;2023-01-29T07:00:32;8.70;;;5.83;;
813;SDS011;389;48.710;9.392;2023-01-29T07:02:58;12.57;;;5.97;;
813;SDS011;389;48.710;9.392;2023-01-29T07:05:24;9.27;;;5.47;;
813;SDS011;389;48.710;9.392;2023-01-29T07:07:50;11.23;;;6.00;;
813;SDS011;389;48.710;9.392;2023-01-29T07:10:15;10.33;;;5.50;;
813;SDS011;389;48.710;9.392;2023-01-29T07:12:41;10.97;;;5.97;;
813;SDS011;389;48.710;9.392;2023-01-29T07:15:07;10.97;;;5.93;;
813;SDS011;389;48.710;9.392;2023-01-29T07:17:33;12.00;;;6.90;;
813;SDS011;389;48.710;9.392;2023-01-29T07:19:58;15.10;;;8.07;;
813;SDS011;389;48.710;9.392;2023-01-29T07:22:24;11.37;;;6.30;;
813;SDS011;389;48.710;9.392;2023-01-29T07:24:50;11.30;;;5.87;;
813;SDS011;389;48.710;9.392;2023-01-29T07:27:15;12.93;;;6.60;;
813;SDS011;389;48.710;9.392;2023-01-29T07:29:41;14.03;;;6.53;;
813;SDS011;389;48.710;9.392;2023-01-29T07:32:06;9.77;;;6.13;;
813;SDS011;389;48.710;9.392;2023-01-29T07:34:32;11.60;;;6.90;;
813;SDS011;389;48.710;9.392;2023-01-29T07:36:57;14.13;;;6.60;;
813;SDS011;389;48.710;9.392;2023-01-29T07:39:23;10.30;;;6.67;;
813;SDS011;389;48.710;9.392;2023-01-29T07:41:49;11.23;;;6.23;;
813;SDS011;389;48.710;9.392;2023-01-29T07:44:14;12.23;;;6.50;;
813;SDS011;389;48.710;9.392;2023-01-29T07:46:40;11.00;;;5.57;;
813;SDS011;389;48.710;9.392;2023-01-29T07:49:06;13.40;;;7.20;;
813;SDS011;389;48.710;9.392;2023-01-29T07:51:32;16.10;;;8.43;;
813;SDS011;389;48.710;9.392;2023-01-29T07:53:57;18.47;;;11.40;;
813;SDS011;389;48.710;9.392;2023-01-29T07:56:23;10.73;;;6.97;;
813;SDS011;389;48.710;9.392;2023-01-29T07:58:48;12.60;;;7.13;;
813;SDS011;389;48.710;9.392;2023-01-29T08:01:15;13.30;;;7.60;;
813;SDS011;389;48.710;9.392;2023-01-29T08:03:40;12.40;;;7.23;;
813;SDS011;389;48.710;9.392;2023-01-29T08:06:06;10.83;;;6.40;;
813;SDS011;389;48.710;9.392;2023-01-29T08:08:32;14.43;;;8.17;;
813;SDS011;389;48.710;9.392;2023-01-29T08:10:59;12.90;;;6.53;;
813;SDS011;389;48.710;9.392;2023-01-29T08:13:26;9.47;;;6.07;;
813;SDS011;389;48.710;9.392;2023-01-29T08:15:52;11.57;;;6.63;;
813;SDS011;389;48.710;9.392;2023-01-29T08:18:23;13.23;;;6.93;;
813;SDS011;389;48.710;9.392;2023-01-29T08:20:49;10.03;;;6.43;;
813;SDS011;389;48.710;9.392;2023-01-29T08:23:14;14.07;;;6.50;;
813;SDS011;389;48.710;9.392;2023-01-29T08:25:40;9.53;;;6.40;;
813;SDS011;389;48.710;9.392;2023-01-29T08:28:06;8.03;;;5.13;;
813;SDS011;389;48.710;9.392;2023-01-29T08:30:32;8.93;;;5.50;;
813;SDS011;389;48.710;9.392;2023-01-29T08:32:58;16.07;;;6.90;;
813;SDS011;389;48.710;9.392;2023-01-29T08:35:24;15.30;;;7.93;;
813;SDS011;389;48.710;9.392;2023-01-29T08:37:54;12.63;;;6.80;;
813;SDS011;389;48.710;9.392;2023-01-29T08:40:23;12.17;;;7.07;;
813;SDS011;389;48.710;9.392;2023-01-29T08:42:49;14.97;;;7.20;;
813;SDS011;389;48.710;9.392;2023-01-29T08:45:15;10.67;;;7.33;;
813;SDS011;389;48.710;9.392;2023-01-29T08:47:44;13.87;;;7.40;;
813;SDS011;389;48.710;9.392;2023-01-29T08:50:14;12.63;;;7.90;;
813;SDS011;389;48.710;9.392;2023-01-29T08:52:40;11.10;;;6.80;;
813;SDS011;389;48.710;9.392;2023-01-29T08:55:07;12.30;;;6.70;;
813;SDS011;389;48.710;9.392;2023-01-29T08:57:33;9.77;;;6.73;;
813;SDS011;389;48.710;9.392;2023-01-29T08:59:58;13.50;;;7.10;;
813;SDS011;389;48.710;9.392;2023-01-29T09:02:24;9.87;;;6.00;;
813;SDS011;389;48.710;9.392;2023-01-29T09:04:50;11.70;;;6.97;;
813;SDS011;389;48.710;9.392;2023-01-29T09:07:15;12.00;;;6.43;;
813;SDS011;389;48.710;9.392;2023-01-29T09:09:41;16.77;;;7.53;;
813;SDS011;389;48.710;9.392;2023-01-29T09:12:06;13.43;;;7.90;;
813;SDS011;389;48.710;9.392;2023-01-29T09:14:32;12.10;;;7.37;;
813;SDS011;389;48.710;9.392;2023-01-29T09:16:57;13.07;;;6.70;;
813;SDS011;389;48.710;9.392;2023-01-29T09:19:23;11.37;;;7.03;;
813;SDS011;389;48.710;9.392;2023-01-29T09:21:48;10.00;;;5.60;;
813;SDS011;389;48.710;9.392;2023-01-29T09:52:03;14.57;;;7.10;;
813;SDS011;389;48.710;9.392;2023-01-29T11:28:46;12.93;;;7.80;;
813;SDS011;389;48.710;9.392;2023-01-29T11:45:35;10.30;;;6.90;;
813;SDS011;389;48.710;9.392;2023-01-29T11:48:44;9.10;;;6.70;;
813;SDS011;389;48.710;9.392;2023-01-29T11:51:43;8.87;;;6.20;;
813;SDS011;389;48.710;9.392;2023-01-29T12:04:45;16.67;;;8.77;;
813;SDS011;389;48.710;9.392;2023-01-29T12:07:12;10.20;;;7.63;;
813;SDS011;389;48.710;9.392;2023-01-29T12:09:40;11.47;;;7.87;;
813;SDS011;389;48.710;9.392;2023-01-29T12:12:17;9.23;;;5.77;;
813;SDS011;389;48.710;9.392;2023-01-29T12:15:10;11.27;;;7.37;;
813;SDS011;389;48.710;9.392;2023-01-29T12:17:45;11.93;;;7.07;;
813;SDS011;389;48.710;9.392;2023-01-29T12:20:21;11.50;;;6.60;;
813;SDS011;389;48.710;9.392;2023-01-29T12:35:43;11.60;;;7.20;;
813;SDS011;389;48.710;9.392;2023-01-29T13:13:05;5.20;;;4.30;;
813;SDS011;389;48.710;9.392;2023-01-29T13:15:54;7.50;;;4.77;;
813;SDS011;389;48.710;9.392;2023-01-29T13:18:39;7.73;;;4.50;;
813;SDS011;389;48.710;9.392;2023-01-29T13:21:21;7.60;;;4.77;;
813;SDS011;389;48.710;9.392;2023-01-29T13:23:52;7.27;;;4.60;;
813;SDS011;389;48.710;9.392;2023-01-29T13:31:32;6.57;;;3.87;;
813;SDS011;389;48.710;9.392;2023-01-29T13:34:10;7.10;;;4.83;;
813;SDS011;389;48.710;9.392;2023-01-29T13:36:44;9.37;;;5.07;;
813;SDS011;389;48.710;9.392;2023-01-29T13:39:31;6.00;;;4.23;;
813;SDS011;389;48.710;9.392;2023-01-29T13:45:16;7.20;;;4.43;;
813;SDS011;389;48.710;9.392;2023-01-29T13:48:39;8.50;;;4.70;;
813;SDS011;389;48.710;9.392;2023-01-29T13:50:59;7.20;;;4.50;;
813;SDS011;389;48.710;9.392;2023-01-29T13:53:26;7.93;;;4.83;;
813;SDS011;389;48.710;9.392;2023-01-29T13:58:52;10.20;;;6.03;;
813;SDS011;389;48.710;9.392;2023-01-29T14:01:39;8.93;;;5.03;;
813;SDS011;389;48.710;9.392;2023-01-29T14:06:59;6.30;;;4.30;;
813;SDS011;389;48.710;9.392;2023-01-29T14:12:02;8.43;;;5.83;;
813;SDS011;389;48.710;9.392;2023-01-29T14:17:13;9.63;;;6.33;;
813;SDS011;389;48.710;9.392;2023-01-29T14:19:55;8.27;;;4.73;;
813;SDS011;389;48.710;9.392;2023-01-29T14:22:28;7.50;;;4.60;;
813;SDS011;389;48.710;9.392;2023-01-29T14:25:04;8.13;;;5.07;;
813;SDS011;389;48.710;9.392;2023-01-29T14:27:30;7.70;;;5.03;;
813;SDS011;389;48.710;9.392;2023-01-29T14:30:00;9.50;;;6.20;;
813;SDS011;389;48.710;9.392;2023-01-29T14:32:33;8.37;;;5.07;;
813;SDS011;389;48.710;9.392;2023-01-29T14:35:04;13.80;;;8.40;;
813;SDS011;389;48.710;9.392;2023-01-29T14:37:43;8.90;;;5.90;;
813;SDS011;389;48.710;9.392;2023-01-29T14:45:46;13.73;;;6.80;;
813;SDS011;389;48.710;9.392;2023-01-29T14:50:39;12.67;;;6.03;;
813;SDS011;389;48.710;9.392;2023-01-29T14:53:17;14.93;;;7.37;;
813;SDS011;389;48.710;9.392;2023-01-29T14:56:14;13.93;;;6.10;;
813;SDS011;389;48.710;9.392;2023-01-29T14:58:51;13.07;;;7.10;;
813;SDS011;389;48.710;9.392;2023-01-29T15:03:57;10.80;;;6.73;;
813;SDS011;389;48.710;9.392;2023-01-29T15:06:29;11.90;;;5.90;;
813;SDS011;389;48.710;9.392;2023-01-29T15:09:28;9.63;;;5.90;;
813;SDS011;389;48.710;9.392;2023-01-29T15:19:47;5.60;;;4.83;;
813;SDS011;389;48.710;9.392;2023-01-29T15:22:19;9.10;;;5.00;;
813;SDS011;389;48.710;9.392;2023-01-29T15:24:46;7.73;;;4.90;;
813;SDS011;389;48.710;9.392;2023-01-29T15:27:26;7.73;;;4.50;;
813;SDS011;389;48.710;9.392;2023-01-29T15:29:56;7.60;;;4.70;;
813;SDS011;389;48.710;9.392;2023-01-29T15:32:26;7.87;;;4.87;;
813;SDS011;389;48.710;9.392;2023-01-29T15:34:55;7.50;;;5.40;;
813;SDS011;389;48.710;9.392;2023-01-29T15:37:23;5.97;;;4.60;;
813;SDS011;389;48.710;9.392;2023-01-29T15:39:50;5.97;;;4.07;;
813;SDS011;389;48.710;9.392;2023-01-29T15:42:16;7.27;;;4.27;;
813;SDS011;389;48.710;9.392;2023-01-29T15:44:47;11.10;;;5.90;;
813;SDS011;389;48.710;9.392;2023-01-29T15:47:12;8.10;;;4.53;;
813;SDS011;389;48.710;9.392;2023-01-29T15:49:39;6.20;;;4.40;;
813;SDS011;389;48.710;9.392;2023-01-29T15:52:27;8.70;;;4.93;;
813;SDS011;389;48.710;9.392;2023-01-29T15:54:53;12.47;;;7.67;;
813;SDS011;389;48.710;9.392;2023-01-29T15:57:27;11.10;;;8.67;;
813;SDS011;389;48.710;9.392;2023-01-29T15:59:58;11.10;;;6.30;;
813;SDS011;389;48.710;9.392;2023-01-29T16:04:58;9.73;;;6.10;;
813;SDS011;389;48.710;9.392;2023-01-29T16:07:24;10.30;;;6.40;;
813;SDS011;389;48.710;9.392;2023-01-29T16:09:50;8.97;;;4.50;;
813;SDS011;389;48.710;9.392;2023-01-29T16:12:17;8.03;;;4.77;;
813;SDS011;389;48.710;9.392;2023-01-29T16:14:43;9.17;;;5.13;;
813;SDS011;389;48.710;9.392;2023-01-29T16:17:19;11.37;;;6.53;;
813;SDS011;389;48.710;9.392;2023-01-29T16:19:57;15.33;;;7.50;;
813;SDS011;389;48.710;9.392;2023-01-29T16:22:31;11.53;;;7.07;;
813;SDS011;389;48.710;9.392;2023-01-29T16:25:05;22.80;;;9.43;;
813;SDS011;389;48.710;9.392;2023-01-29T16:27:36;28.93;;;12.70;;
813;SDS011;389;48.710;9.392;2023-01-29T16:30:03;22.33;;;11.53;;
813;SDS011;389;48.710;9.392;2023-01-29T16:32:29;25.73;;;11.90;;
813;SDS011;389;48.710;9.392;2023-01-29T16:34:58;36.07;;;16.10;;
813;SDS011;389;48.710;9.392;2023-01-29T16:39:53;55.53;;;22.00;;
813;SDS011;389;48.710;9.392;2023-01-29T16:44:57;36.80;;;11.80;;
813;SDS011;389;48.710;9.392;2023-01-29T16:49:57;14.77;;;9.07;;
813;SDS011;389;48.710;9.392;2023-01-29T16:52:26;17.60;;;8.73;;
813;SDS011;389;48.710;9.392;2023-01-29T16:57:35;15.57;;;8.30;;
813;SDS011;389;48.710;9.392;2023-01-29T17:00:05;15.47;;;8.23;;
813;SDS011;389;48.710;9.392;2023-01-29T17:02:37;20.20;;;11.07;;
813;SDS011;389;48.710;9.392;2023-01-29T17:05:48;23.73;;;9.60;;
813;SDS011;389;48.710;9.392;2023-01-29T17:07:54;17.30;;;9.40;;
813;SDS011;389;48.710;9.392;2023-01-29T17:10:22;14.93;;;8.27;;
813;SDS011;389;48.710;9.392;2023-01-29T17:12:52;11.60;;;7.20;;
813;SDS011;389;48.710;9.392;2023-01-29T17:18:13;12.60;;;7.07;;
813;SDS011;389;48.710;9.392;2023-01-29T17:20:42;19.07;;;8.47;;
813;SDS011;389;48.710;9.392;2023-01-29T17:23:07;15.37;;;7.97;;
813;SDS011;389;48.710;9.392;2023-01-29T17:25:33;21.73;;;10.63;;
813;SDS011;389;48.710;9.392;2023-01-29T17:27:59;20.40;;;10.57;;
813;SDS011;389;48.710;9.392;2023-01-29T17:30:26;16.93;;;9.73;;
813;SDS011;389;48.710;9.392;2023-01-29T17:32:54;16.43;;;8.40;;
813;SDS011;389;48.710;9.392;2023-01-29T17:35:20;19.20;;;8.77;;
813;SDS011;389;48.710;9.392;2023-01-29T17:37:46;15.23;;;7.03;;
813;SDS011;389;48.710;9.392;2023-01-29T17:40:17;28.77;;;11.37;;
813;SDS011;389;48.710;9.392;2023-01-29T17:43:01;28.60;;;12.60;;
813;SDS011;389;48.710;9.392;2023-01-29T17:45:26;32.50;;;12.77;;
813;SDS011;389;48.710;9.392;2023-01-29T17:47:52;26.33;;;12.10;;
813;SDS011;389;48.710;9.392;2023-01-29T17:50:22;36.07;;;16.93;;
813;SDS011;389;48.710;9.392;2023-01-29T17:52:49;40.50;;;17.00;;
813;SDS011;389;48.710;9.392;2023-01-29T17:55:15;26.13;;;11.80;;
813;SDS011;389;48.710;9.392;2023-01-29T17:57:41;19.33;;;9.60;;
813;SDS011;389;48.710;9.392;2023-01-29T18:00:17;26.27;;;11.77;;
813;SDS011;389;48.710;9.392;2023-01-29T18:02:44;30.03;;;13.43;;
813;SDS011;389;48.710;9.392;2023-01-29T18:05:11;20.10;;;11.13;;
813;SDS011;389;48.710;9.392;2023-01-29T18:07:38;22.80;;;11.27;;
813;SDS011;389;48.710;9.392;2023-01-29T18:10:05;27.30;;;13.80;;
813;SDS011;389;48.710;9.392;2023-01-29T18:12:31;26.00;;;13.50;;
813;SDS011;389;48.710;9.392;2023-01-29T18:14:57;26.40;;;12.33;;
813;SDS011;389;48.710;9.392;2023-01-29T18:17:22;30.30;;;13.63;;
813;SDS011;389;48.710;9.392;2023-01-29T18:19:48;23.73;;;13.27;;
813;SDS011;389;48.710;9.392;2023-01-29T18:22:14;31.50;;;14.10;;
813;SDS011;389;48.710;9.392;2023-01-29T18:24:39;25.77;;;13.97;;
813;SDS011;389;48.710;9.392;2023-01-29T18:27:05;24.93;;;13.70;;
813;SDS011;389;48.710;9.392;2023-01-29T18:29:30;34.07;;;15.40;;
813;SDS011;389;48.710;9.392;2023-01-29T18:31:56;21.77;;;12.23;;
813;SDS011;389;48.710;9.392;2023-01-29T18:34:22;24.53;;;11.30;;
813;SDS011;389;48.710;9.392;2023-01-29T18:36:47;19.17;;;9.60;;
813;SDS011;389;48.710;9.392;2023-01-29T18:39:14;20.50;;;9.70;;
813;SDS011;389;48.710;9.392;2023-01-29T18:41:40;19.23;;;8.97;;
813;SDS011;389;48.710;9.392;2023-01-29T18:44:06;18.73;;;9.77;;
813;SDS011;389;48.710;9.392;2023-01-29T18:46:31;19.60;;;9.53;;
813;SDS011;389;48.710;9.392;2023-01-29T18:48:57;22.67;;;10.20;;
813;SDS011;389;48.710;9.392;2023-01-29T18:51:23;21.50;;;10.97;;
813;SDS011;389;48.710;9.392;2023-01-29T18:53:51;18.27;;;9.97;;
813;SDS011;389;48.710;9.392;2023-01-29T18:56:17;19.37;;;9.90;;
813;SDS011;389;48.710;9.392;2023-01-29T18:58:43;15.83;;;8.50;;
813;SDS011;389;48.710;9.392;2023-01-29T19:01:12;18.80;;;10.10;;
813;SDS011;389;48.710;9.392;2023-01-29T19:03:38;15.90;;;9.40;;
813;SDS011;389;48.710;9.392;2023-01-29T19:06:05;20.00;;;10.10;;
813;SDS011;389;48.710;9.392;2023-01-29T19:08:32;20.30;;;10.00;;
813;SDS011;389;48.710;9.392;2023-01-29T19:10:58;16.40;;;9.43;;
813;SDS011;389;48.710;9.392;2023-01-29T19:13:27;19.87;;;10.60;;
813;SDS011;389;48.710;9.392;2023-01-29T19:15:53;29.77;;;13.53;;
813;SDS011;389;48.710;9.392;2023-01-29T19:18:19;26.03;;;13.50;;
813;SDS011;389;48.710;9.392;2023-01-29T19:20:44;22.97;;;13.27;;
813;SDS011;389;48.710;9.392;2023-01-29T19:23:10;47.33;;;21.40;;
813;SDS011;389;48.710;9.392;2023-01-29T19:25:38;47.90;;;17.40;;
813;SDS011;389;48.710;9.392;2023-01-29T19:28:05;27.67;;;13.07;;
813;SDS011;389;48.710;9.392;2023-01-29T19:30:31;32.63;;;12.87;;
813;SDS011;389;48.710;9.392;2023-01-29T19:32:57;45.77;;;18.20;;
813;SDS011;389;48.710;9.392;2023-01-29T19:35:22;32.87;;;14.80;;
813;SDS011;389;48.710;9.392;2023-01-29T19:37:48;27.50;;;13.10;;
813;SDS011;389;48.710;9.392;2023-01-29T19:40:13;30.93;;;14.50;;
813;SDS011;389;48.710;9.392;2023-01-29T19:42:39;21.10;;;12.37;;
813;SDS011;389;48.710;9.392;2023-01-29T19:45:05;23.87;;;13.60;;
813;SDS011;389;48.710;9.392;2023-01-29T19:47:36;27.20;;;15.63;;
813;SDS011;389;48.710;9.392;2023-01-29T19:50:07;25.43;;;15.07;;
813;SDS011;389;48.710;9.392;2023-01-29T19:52:34;28.23;;;14.67;;
813;SDS011;389;48.710;9.392;2023-01-29T19:55:01;23.53;;;12.17;;
813;SDS011;389;48.710;9.392;2023-01-29T19:57:31;28.30;;;13.00;;
813;SDS011;389;48.710;9.392;2023-01-29T19:59:57;28.27;;;14.90;;
813;SDS011;389;48.710;9.392;2023-01-29T20:02:23;29.63;;;14.33;;
813;SDS011;389;48.710;9.392;2023-01-29T20:04:49;28.03;;;14.27;;
813;SDS011;389;48.710;9.392;2023-01-29T20:07:16;33.30;;;15.30;;
813;SDS011;389;48.710;9.392;2023-01-29T20:09:43;32.67;;;16.60;;
813;SDS011;389;48.710;9.392;2023-01-29T20:12:12;35.27;;;16.70;;
813;SDS011;389;48.710;9.392;2023-01-29T20:14:38;39.47;;;17.90;;
813;SDS011;389;48.710;9.392;2023-01-29T20:17:09;31.83;;;16.67;;
813;SDS011;389;48.710;9.392;2023-01-29T20:19:36;36.10;;;17.63;;
813;SDS011;389;48.710;9.392;2023-01-29T20:22:01;35.17;;;16.77;;
813;SDS011;389;48.710;9.392;2023-01-29T20:24:29;33.50;;;16.87;;
813;SDS011;389;48.710;9.392;2023-01-29T20:26:56;26.30;;;13.67;;
813;SDS011;389;48.710;9.392;2023-01-29T20:29:22;28.40;;;12.53;;
813;SDS011;389;48.710;9.392;2023-01-29T20:31:47;22.63;;;11.30;;
813;SDS011;389;48.710;9.392;2023-01-29T20:34:13;27.43;;;14.43;;
813;SDS011;389;48.710;9.392;2023-01-29T20:36:38;26.20;;;11.97;;
813;SDS011;389;48.710;9.392;2023-01-29T20:39:04;23.07;;;12.03;;